createdAt,value
2022-12-05T00:01:49.818Z,44.80
2022-12-05T00:04:16.631Z,43.90
2022-12-05T00:06:44.335Z,44.30
2022-12-05T00:09:12.614Z,44.90
2022-12-05T00:11:42.648Z,43.80
2022-12-05T00:14:10.246Z,45.90
2022-12-05T00:16:39.395Z,45.00
2022-12-05T00:19:07.976Z,45.00
2022-12-05T00:21:36.448Z,44.30
2022-12-05T00:24:05.781Z,45.00
2022-12-05T00:26:32.998Z,44.20
2022-12-05T00:29:00.205Z,44.80
2022-12-05T00:31:28.124Z,45.90
2022-12-05T00:33:55.720Z,45.10
2022-12-05T00:36:28.214Z,43.60
2022-12-05T00:38:55.812Z,44.60
2022-12-05T00:41:26.090Z,45.70
2022-12-05T00:43:53.390Z,44.20
2022-12-05T00:46:23.360Z,43.60
2022-12-05T00:48:52.071Z,46.00
2022-12-05T00:51:26.722Z,44.90
2022-12-05T00:53:58.034Z,45.80
2022-12-05T00:56:26.539Z,45.80
2022-12-05T00:58:56.502Z,45.40
2022-12-05T01:01:27.036Z,43.60
2022-12-05T01:03:55.902Z,44.90
2022-12-05T01:06:24.533Z,45.70
2022-12-05T01:08:55.598Z,44.70
2022-12-05T01:11:23.860Z,45.80
2022-12-05T01:13:51.002Z,45.30
2022-12-05T01:16:31.904Z,45.30
2022-12-05T01:19:00.657Z,44.30
2022-12-05T01:21:27.710Z,45.20
2022-12-05T01:23:54.710Z,46.30
2022-12-05T01:26:22.734Z,45.40
2022-12-05T01:28:50.969Z,44.60
2022-12-05T01:31:29.758Z,43.70
2022-12-05T01:33:58.425Z,44.40
2022-12-05T01:36:27.571Z,44.50
2022-12-05T01:38:55.021Z,44.40
2022-12-05T01:41:28.658Z,44.50
2022-12-05T01:44:00.119Z,43.70
2022-12-05T01:46:38.150Z,43.80
2022-12-05T01:49:15.250Z,44.50
2022-12-05T01:51:51.817Z,44.40
2022-12-05T01:54:20.678Z,44.40
2022-12-05T01:56:52.116Z,46.20
2022-12-05T01:59:21.083Z,46.20
2022-12-05T02:01:48.123Z,43.80
2022-12-05T02:04:15.066Z,43.80
2022-12-05T02:06:42.469Z,45.40
2022-12-05T02:09:09.386Z,46.50
2022-12-05T02:12:02.235Z,44.60
2022-12-05T02:14:44.887Z,44.50
2022-12-05T02:17:36.685Z,44.50
2022-12-05T02:20:26.879Z,45.70
2022-12-05T02:23:16.454Z,44.50
2022-12-05T02:26:04.817Z,45.60
2022-12-05T02:28:51.150Z,44.50
2022-12-05T02:31:40.748Z,44.50
2022-12-05T02:34:24.124Z,44.50
2022-12-05T02:37:03.050Z,44.50
2022-12-05T02:40:04.394Z,44.50
2022-12-05T02:42:49.222Z,44.50
2022-12-05T02:45:18.958Z,45.90
2022-12-05T02:47:49.092Z,44.70
2022-12-05T02:50:22.081Z,43.90
2022-12-05T02:52:50.835Z,44.00
2022-12-05T02:55:19.448Z,45.20
2022-12-05T02:57:52.894Z,46.10
2022-12-05T03:00:19.728Z,45.70
2022-12-05T03:02:48.558Z,45.10
2022-12-05T03:05:22.621Z,46.10
2022-12-05T03:07:52.220Z,44.50
2022-12-05T03:10:22.213Z,44.00
2022-12-05T03:12:54.534Z,43.90
2022-12-05T03:15:26.507Z,44.00
2022-12-05T03:17:59.821Z,45.20
2022-12-05T03:20:34.512Z,44.00
2022-12-05T03:23:12.614Z,44.00
2022-12-05T03:26:11.955Z,44.60
2022-12-05T03:29:20.266Z,45.20
2022-12-05T03:32:10.845Z,44.60
2022-12-05T03:35:07.707Z,44.60
2022-12-05T03:37:52.768Z,44.70
2022-12-05T03:40:19.560Z,44.60
2022-12-05T03:43:00.314Z,44.00
2022-12-05T03:45:39.767Z,44.80
2022-12-05T03:48:31.764Z,46.50
2022-12-05T03:51:00.034Z,44.70
2022-12-05T03:53:44.951Z,46.30
2022-12-05T03:56:19.481Z,44.80
2022-12-05T03:59:02.253Z,46.70
2022-12-05T04:01:31.433Z,44.80
2022-12-05T04:04:04.350Z,44.80
2022-12-05T04:06:35.285Z,45.40
2022-12-05T04:09:25.991Z,44.20
2022-12-05T04:11:57.616Z,44.90
2022-12-05T04:14:34.086Z,44.30
2022-12-05T04:17:09.817Z,45.50
2022-12-05T04:20:01.432Z,44.30
2022-12-05T04:22:28.816Z,44.90
2022-12-05T04:25:17.423Z,45.10
2022-12-05T04:27:54.585Z,45.30
2022-12-05T04:30:25.779Z,44.90
2022-12-05T04:33:09.385Z,46.00
2022-12-05T04:35:46.309Z,44.40
2022-12-05T04:38:40.040Z,44.30
2022-12-05T04:41:12.877Z,44.90
2022-12-05T04:43:41.930Z,46.40
2022-12-05T04:46:11.884Z,44.30
2022-12-05T04:48:41.691Z,44.40
2022-12-05T04:51:13.144Z,45.40
2022-12-05T04:53:42.485Z,44.40
2022-12-05T04:56:11.632Z,44.30
2022-12-05T04:58:38.513Z,47.00
2022-12-05T05:01:37.178Z,44.40
2022-12-05T05:04:25.766Z,44.40
2022-12-05T05:06:52.697Z,45.00
2022-12-05T05:09:19.457Z,44.40
2022-12-05T05:11:46.315Z,47.20
2022-12-05T05:14:15.104Z,44.40
2022-12-05T05:16:42.915Z,46.40
2022-12-05T05:19:11.858Z,44.50
2022-12-05T05:21:41.307Z,44.50
2022-12-05T05:24:09.811Z,44.50
2022-12-05T05:26:39.546Z,46.90
2022-12-05T05:29:06.547Z,44.50
2022-12-05T05:31:33.666Z,44.50
2022-12-05T05:34:04.540Z,46.00
2022-12-05T05:36:36.086Z,44.50
2022-12-05T05:39:03.731Z,46.40
2022-12-05T05:41:33.652Z,45.30
2022-12-05T05:44:01.067Z,46.90
2022-12-05T05:46:30.605Z,44.50
2022-12-05T05:48:58.245Z,46.80
2022-12-05T05:51:27.928Z,45.50
2022-12-05T05:53:54.918Z,46.20
2022-12-05T05:56:22.376Z,44.60
2022-12-05T05:58:56.033Z,44.60
2022-12-05T06:01:23.190Z,46.00
2022-12-05T06:03:53.405Z,45.20
2022-12-05T06:06:21.674Z,44.60
2022-12-05T06:08:48.701Z,47.00
2022-12-05T06:11:25.853Z,44.70
2022-12-05T06:13:57.592Z,45.40
2022-12-05T06:16:25.108Z,46.30
2022-12-05T06:18:52.642Z,46.30
2022-12-05T06:21:20.208Z,45.70
2022-12-05T06:23:47.819Z,46.40
2022-12-05T06:26:17.578Z,47.30
2022-12-05T06:28:45.348Z,46.70
2022-12-05T06:31:14.747Z,47.40
2022-12-05T06:33:41.696Z,45.20
2022-12-05T06:36:14.775Z,47.00
2022-12-05T06:38:43.004Z,44.80
2022-12-05T06:41:15.965Z,47.40
2022-12-05T06:43:43.153Z,46.40
2022-12-05T06:46:12.352Z,44.80
2022-12-05T06:48:39.593Z,45.80
2022-12-05T06:51:09.423Z,47.20
2022-12-05T06:53:36.173Z,45.20
2022-12-05T06:56:07.427Z,47.90
2022-12-05T06:58:34.337Z,45.60
2022-12-05T07:01:21.013Z,45.00
2022-12-05T07:06:18.837Z,45.10
2022-12-05T07:08:45.549Z,45.10
2022-12-05T07:11:12.262Z,45.10
2022-12-05T07:13:39.238Z,45.10
2022-12-05T07:16:09.874Z,45.10
2022-12-05T07:18:37.272Z,45.80
2022-12-05T07:21:12.094Z,45.10
2022-12-05T07:23:42.872Z,45.10
2022-12-05T07:26:12.882Z,45.10
2022-12-05T07:28:39.752Z,45.60
2022-12-05T07:31:09.400Z,47.10
2022-12-05T07:33:38.428Z,46.20
2022-12-05T07:36:23.780Z,46.50
2022-12-05T07:38:56.575Z,46.50
2022-12-05T07:41:29.022Z,46.60
2022-12-05T07:43:57.760Z,46.20
2022-12-05T07:46:25.889Z,45.10
2022-12-05T07:48:53.159Z,47.80
2022-12-05T07:51:20.884Z,45.10
2022-12-05T07:53:48.601Z,45.00
2022-12-05T07:56:17.482Z,45.00
2022-12-05T07:58:46.153Z,45.50
2022-12-05T08:01:16.181Z,45.60
2022-12-05T08:03:43.632Z,45.10
2022-12-05T08:06:13.310Z,47.20
2022-12-05T08:08:40.526Z,45.10
2022-12-05T08:11:10.265Z,45.00
2022-12-05T08:13:37.714Z,46.70
2022-12-05T08:16:06.850Z,45.10
2022-12-05T08:18:34.037Z,45.10
2022-12-05T08:21:05.169Z,44.80
2022-12-05T08:23:32.907Z,45.70
2022-12-05T08:26:04.807Z,45.10
2022-12-05T08:28:32.824Z,45.10
2022-12-05T08:31:12.207Z,45.90
2022-12-05T08:33:39.200Z,45.20
2022-12-05T08:36:09.415Z,45.20
2022-12-05T08:38:36.962Z,45.10
2022-12-05T08:41:06.137Z,45.20
2022-12-05T08:43:33.574Z,45.90
2022-12-05T08:46:00.859Z,47.10
2022-12-05T08:48:29.931Z,46.80
2022-12-05T08:50:57.654Z,46.50
2022-12-05T08:53:25.093Z,45.90
2022-12-05T08:55:51.902Z,47.40
2022-12-05T08:58:18.587Z,47.00
2022-12-05T09:00:46.528Z,45.40
2022-12-05T09:03:13.343Z,47.80
2022-12-05T09:05:40.310Z,45.40
2022-12-05T09:08:07.181Z,45.40
2022-12-05T09:10:34.005Z,45.40
2022-12-05T09:13:00.967Z,47.30
2022-12-05T09:15:29.538Z,45.40
2022-12-05T09:17:56.323Z,47.30
2022-12-05T09:20:23.038Z,47.00
2022-12-05T09:22:49.825Z,45.50
2022-12-05T09:25:16.593Z,47.20
2022-12-05T09:27:43.390Z,45.50
2022-12-05T09:30:11.547Z,45.60
2022-12-05T09:32:38.286Z,46.40
2022-12-05T09:35:05.358Z,48.00
2022-12-05T09:37:40.317Z,46.70
2022-12-05T09:40:18.693Z,45.70
2022-12-05T09:42:49.362Z,46.30
2022-12-05T09:45:43.186Z,46.30
2022-12-05T09:48:18.906Z,45.80
2022-12-05T09:50:46.010Z,46.50
2022-12-05T09:53:32.634Z,45.90
2022-12-05T09:56:05.471Z,46.60
2022-12-05T09:58:48.334Z,46.00
2022-12-05T10:01:24.297Z,47.50
2022-12-05T10:04:11.827Z,46.70
2022-12-05T10:07:07.194Z,46.70
2022-12-05T10:09:50.042Z,46.70
2022-12-05T10:12:24.863Z,46.80
2022-12-05T10:15:18.045Z,46.80
2022-12-05T10:18:01.322Z,46.80
2022-12-05T10:20:42.105Z,46.80
2022-12-05T10:23:49.029Z,47.60
2022-12-05T10:26:11.322Z,46.20
2022-12-05T10:29:17.761Z,46.20
2022-12-05T10:31:47.648Z,46.20
2022-12-05T10:34:39.237Z,46.20
2022-12-05T10:37:17.760Z,46.30
2022-12-05T10:39:45.539Z,46.20
2022-12-05T10:42:33.716Z,46.30
2022-12-05T10:45:05.554Z,48.90
2022-12-05T10:47:33.127Z,46.30
2022-12-05T10:50:08.123Z,46.50
2022-12-05T10:52:36.035Z,47.00
2022-12-05T10:55:06.304Z,46.40
2022-12-05T10:57:32.999Z,47.20
2022-12-05T11:00:15.164Z,46.40
2022-12-05T11:02:43.791Z,47.10
2022-12-05T11:05:11.655Z,49.00
2022-12-05T11:07:48.512Z,46.50
2022-12-05T11:10:26.534Z,47.20
2022-12-05T11:12:57.224Z,47.10
2022-12-05T11:15:27.778Z,46.50
2022-12-05T11:17:56.904Z,47.90
2022-12-05T11:20:23.613Z,47.60
2022-12-05T11:22:56.328Z,46.50
2022-12-05T11:25:34.140Z,47.20
2022-12-05T11:28:20.835Z,47.10
2022-12-05T11:31:21.139Z,49.20
2022-12-05T11:34:02.323Z,46.50
2022-12-05T11:36:46.328Z,48.80
2022-12-05T11:39:14.181Z,48.00
2022-12-05T11:42:16.361Z,46.50
2022-12-05T11:45:16.965Z,47.20
2022-12-05T11:48:08.134Z,47.30
2022-12-05T11:50:49.162Z,47.40
2022-12-05T11:53:24.687Z,48.80
2022-12-05T11:56:20.733Z,48.30
2022-12-05T11:58:56.683Z,47.40
2022-12-05T12:01:45.074Z,46.70
2022-12-05T12:04:57.054Z,47.40
2022-12-05T12:07:48.347Z,46.80
2022-12-05T12:10:35.516Z,47.50
2022-12-05T12:13:19.441Z,48.40
2022-12-05T12:16:07.961Z,46.90
2022-12-05T12:19:02.910Z,46.90
2022-12-05T12:22:07.241Z,47.50
2022-12-05T12:25:16.814Z,47.60
2022-12-05T12:28:23.138Z,47.60
2022-12-05T12:31:11.002Z,47.60
2022-12-05T12:34:04.934Z,47.10
2022-12-05T12:36:31.753Z,47.70
2022-12-05T12:39:05.595Z,47.00
2022-12-05T12:42:08.971Z,47.80
2022-12-05T12:44:50.726Z,47.10
2022-12-05T12:47:54.244Z,47.80
2022-12-05T12:50:23.440Z,47.80
2022-12-05T12:53:23.351Z,47.90
2022-12-05T12:56:28.052Z,47.80
2022-12-05T12:59:04.434Z,47.80
2022-12-05T13:01:42.281Z,48.80
2022-12-05T13:04:29.859Z,47.90
2022-12-05T13:07:05.167Z,47.30
2022-12-05T13:09:47.323Z,47.90
2022-12-05T13:12:24.196Z,47.90
2022-12-05T13:15:00.436Z,47.90
2022-12-05T13:17:30.353Z,47.90
2022-12-05T13:19:57.693Z,49.50
2022-12-05T13:22:27.251Z,47.40
2022-12-05T13:24:55.535Z,49.00
2022-12-05T13:27:27.862Z,49.90
2022-12-05T13:29:59.868Z,48.10
2022-12-05T13:32:36.189Z,48.10
2022-12-05T13:36:00.367Z,48.90
2022-12-05T13:38:56.457Z,48.60
2022-12-05T13:41:56.663Z,48.80
2022-12-05T13:44:45.445Z,48.40
2022-12-05T13:47:33.280Z,47.60
2022-12-05T13:50:07.240Z,49.10
2022-12-05T13:52:53.589Z,48.20
2022-12-05T13:55:37.725Z,47.50
2022-12-05T13:58:28.206Z,47.70
2022-12-05T14:01:27.222Z,47.70
2022-12-05T14:03:58.848Z,47.70
2022-12-05T14:06:38.509Z,47.70
2022-12-05T14:09:29.697Z,48.70
2022-12-05T14:12:12.106Z,48.40
2022-12-05T14:14:57.238Z,48.80
2022-12-05T14:17:45.017Z,49.30
2022-12-05T14:20:15.900Z,48.50
2022-12-05T14:23:30.319Z,49.50
2022-12-05T14:26:05.582Z,48.60
2022-12-05T14:28:37.995Z,48.10
2022-12-05T14:31:34.287Z,50.20
2022-12-05T14:34:24.879Z,48.60
2022-12-05T14:36:57.783Z,48.10
2022-12-05T14:39:37.136Z,48.70
2022-12-05T14:42:20.683Z,48.90
2022-12-05T14:44:51.153Z,48.70
2022-12-05T14:47:25.226Z,48.90
2022-12-05T14:49:53.692Z,48.20
2022-12-05T14:52:25.964Z,50.40
2022-12-05T14:54:55.141Z,51.10
2022-12-05T14:57:23.018Z,49.60
2022-12-05T14:59:58.610Z,49.50
2022-12-05T15:02:35.971Z,50.90
2022-12-05T15:05:20.615Z,50.70
2022-12-05T15:07:48.538Z,50.80
2022-12-05T15:10:25.037Z,52.00
2022-12-05T15:13:00.681Z,51.70
2022-12-05T15:15:40.301Z,50.50
2022-12-05T15:18:38.589Z,50.50
2022-12-05T15:21:23.692Z,51.10
2022-12-05T15:24:00.606Z,52.10
2022-12-05T15:26:46.872Z,51.00
2022-12-05T15:29:20.521Z,51.50
2022-12-05T15:31:51.774Z,50.40
2022-12-05T15:34:24.862Z,50.90
2022-12-05T15:36:57.872Z,51.40
2022-12-05T15:39:26.411Z,52.50
2022-12-05T15:41:54.606Z,50.20
2022-12-05T15:44:27.095Z,50.20
2022-12-05T15:46:57.335Z,50.70
2022-12-05T15:49:26.778Z,50.10
2022-12-05T15:52:21.510Z,52.10
2022-12-05T15:54:48.694Z,50.60
2022-12-05T15:57:22.850Z,50.00
2022-12-05T16:00:02.181Z,50.90
2022-12-05T16:02:58.746Z,50.40
2022-12-05T16:05:39.210Z,50.40
2022-12-05T16:08:06.994Z,49.80
2022-12-05T16:10:34.404Z,49.80
2022-12-05T16:13:13.446Z,49.80
2022-12-05T16:15:52.503Z,52.30
2022-12-05T16:18:29.418Z,49.70
2022-12-05T16:20:56.825Z,50.30
2022-12-05T16:23:25.819Z,51.80
2022-12-05T16:25:52.694Z,49.50
2022-12-05T16:28:21.457Z,49.50
2022-12-05T16:31:00.095Z,51.70
2022-12-05T16:33:29.227Z,49.50
2022-12-05T16:35:56.475Z,51.90
2022-12-05T16:38:32.046Z,50.00
2022-12-05T16:41:04.837Z,50.90
2022-12-05T16:43:34.736Z,50.00
2022-12-05T16:46:13.996Z,51.50
2022-12-05T16:48:44.411Z,51.10
2022-12-05T16:51:14.611Z,51.20
2022-12-05T16:53:48.113Z,50.80
2022-12-05T16:56:42.279Z,49.90
2022-12-05T16:59:20.498Z,49.30
2022-12-05T17:01:49.025Z,49.20
2022-12-05T17:04:16.085Z,49.20
2022-12-05T17:06:46.519Z,49.20
2022-12-05T17:09:14.349Z,49.90
2022-12-05T17:11:49.275Z,50.90
2022-12-05T17:14:18.360Z,51.20
2022-12-05T17:16:45.601Z,50.50
2022-12-05T17:19:12.620Z,51.30
2022-12-05T17:21:42.176Z,50.60
2022-12-05T17:24:17.694Z,51.10
2022-12-05T17:26:45.059Z,50.10
2022-12-05T17:29:12.107Z,49.10
2022-12-05T17:31:39.353Z,52.30
2022-12-05T17:34:15.575Z,50.00
2022-12-05T17:36:43.104Z,50.30
2022-12-05T17:39:09.891Z,50.00
2022-12-05T17:41:37.163Z,51.40
2022-12-05T17:44:07.270Z,50.40
2022-12-05T17:46:34.019Z,49.70
2022-12-05T17:49:01.052Z,49.10
2022-12-05T17:51:27.941Z,49.10
2022-12-05T17:53:54.831Z,49.10
2022-12-05T17:56:21.948Z,49.10
2022-12-05T17:58:49.514Z,50.60
2022-12-05T18:01:19.528Z,49.10
2022-12-05T18:03:47.389Z,49.70
2022-12-05T18:06:17.004Z,49.10
2022-12-05T18:08:45.110Z,50.40
2022-12-05T18:11:14.659Z,50.50
2022-12-05T18:13:41.654Z,50.50
2022-12-05T18:16:08.505Z,49.10
2022-12-05T18:18:35.714Z,49.10
2022-12-05T18:21:10.976Z,49.10
2022-12-05T18:23:39.313Z,51.30
2022-12-05T18:26:08.833Z,50.80
2022-12-05T18:28:37.258Z,49.60
2022-12-05T18:31:15.548Z,50.90
2022-12-05T18:33:45.908Z,50.20
2022-12-05T18:36:15.757Z,49.80
2022-12-05T18:38:43.409Z,50.50
2022-12-05T18:41:10.651Z,49.10
2022-12-05T18:43:37.501Z,51.00
2022-12-05T18:46:04.741Z,49.00
2022-12-05T18:48:43.653Z,49.80
2022-12-05T18:51:15.328Z,50.50
2022-12-05T18:53:42.901Z,49.60
2022-12-05T18:56:26.806Z,49.80
2022-12-05T18:59:02.655Z,51.00
2022-12-05T19:01:32.086Z,49.70
2022-12-05T19:04:00.731Z,50.50
2022-12-05T19:06:30.855Z,50.30
2022-12-05T19:09:00.550Z,49.00
2022-12-05T19:11:29.215Z,50.80
2022-12-05T19:14:04.305Z,51.30
2022-12-05T19:16:32.914Z,49.00
2022-12-05T19:19:02.136Z,51.20
2022-12-05T19:21:30.944Z,49.80
2022-12-05T19:23:58.497Z,51.10
2022-12-05T19:26:25.981Z,49.00
2022-12-05T19:28:54.552Z,49.00
2022-12-05T19:31:24.556Z,48.90
2022-12-05T19:33:53.570Z,51.40
2022-12-05T19:36:30.394Z,51.30
2022-12-05T19:38:58.266Z,50.10
2022-12-05T19:41:28.332Z,51.10
2022-12-05T19:43:59.729Z,51.20
2022-12-05T19:46:29.606Z,50.70
2022-12-05T19:48:58.116Z,50.70
2022-12-05T19:51:25.004Z,50.00
2022-12-05T19:53:51.999Z,48.80
2022-12-05T19:56:24.241Z,50.90
2022-12-05T19:58:52.599Z,49.40
2022-12-05T20:01:20.479Z,50.40
2022-12-05T20:03:49.823Z,48.70
2022-12-05T20:06:19.781Z,51.00
2022-12-05T20:08:52.213Z,49.80
2022-12-05T20:11:24.675Z,50.40
2022-12-05T20:13:54.806Z,50.00
2022-12-05T20:16:23.860Z,50.20
2022-12-05T20:18:57.436Z,50.10
2022-12-05T20:21:25.214Z,50.40
2022-12-05T20:23:52.986Z,51.30
2022-12-05T20:26:24.899Z,48.70
2022-12-05T20:28:51.931Z,49.40
2022-12-05T20:31:21.923Z,48.70
2022-12-05T20:33:53.344Z,50.70
2022-12-05T20:36:30.821Z,50.10
2022-12-05T20:39:02.950Z,49.30
2022-12-05T20:41:30.377Z,49.30
2022-12-05T20:44:00.034Z,48.70
2022-12-05T20:46:28.260Z,49.90
2022-12-05T20:48:58.797Z,50.60
2022-12-05T20:51:28.507Z,50.90
2022-12-05T20:53:57.194Z,48.60
2022-12-05T20:56:29.637Z,50.60
2022-12-05T20:58:58.492Z,50.50
2022-12-05T21:01:26.610Z,49.50
2022-12-05T21:03:55.024Z,50.80
2022-12-05T21:06:29.391Z,48.70
2022-12-05T21:11:25.770Z,48.60
2022-12-05T21:13:55.855Z,49.90
2022-12-05T21:16:23.381Z,50.70
2022-12-05T21:18:52.189Z,48.70
2022-12-05T21:21:21.850Z,49.80
2022-12-05T21:23:54.654Z,48.70
2022-12-05T21:26:22.876Z,48.70
2022-12-05T21:28:49.660Z,48.70
2022-12-05T21:31:28.425Z,48.70
2022-12-05T21:33:57.558Z,49.40
2022-12-05T21:36:27.383Z,50.60
2022-12-05T21:38:56.523Z,51.40
2022-12-05T21:41:26.791Z,48.80
2022-12-05T21:43:55.630Z,48.80
2022-12-05T21:46:24.704Z,48.80
2022-12-05T21:48:52.728Z,48.80
2022-12-05T21:51:20.178Z,48.70
2022-12-05T21:53:47.283Z,48.80
2022-12-05T21:56:17.710Z,51.40
2022-12-05T21:58:46.465Z,49.20
2022-12-05T22:01:19.177Z,48.80
2022-12-05T22:03:46.735Z,51.60
2022-12-05T22:06:15.580Z,48.90
2022-12-05T22:08:42.920Z,48.90
2022-12-05T22:11:15.083Z,48.90
2022-12-05T22:13:42.556Z,50.10
2022-12-05T22:16:09.582Z,48.90
2022-12-05T22:21:13.167Z,48.90
2022-12-05T22:23:40.234Z,48.90
2022-12-05T22:26:08.373Z,48.90
2022-12-05T22:28:36.041Z,51.20
2022-12-05T22:31:07.972Z,51.30
2022-12-05T22:33:36.546Z,50.30
2022-12-05T22:36:07.799Z,48.90
2022-12-05T22:38:37.142Z,49.70
2022-12-05T22:41:15.922Z,51.40
2022-12-05T22:43:45.653Z,49.70
2022-12-05T22:46:20.431Z,51.50
2022-12-05T22:48:48.688Z,48.90
2022-12-05T22:51:17.022Z,49.90
2022-12-05T22:53:44.205Z,50.50
2022-12-05T22:56:13.750Z,51.90
2022-12-05T22:58:42.015Z,49.00
2022-12-05T23:01:11.149Z,49.00
2022-12-05T23:03:39.548Z,50.60
2022-12-05T23:06:11.737Z,48.10
2022-12-05T23:08:40.410Z,49.80
2022-12-05T23:11:08.523Z,49.80
2022-12-05T23:13:36.499Z,49.00
2022-12-05T23:16:12.155Z,49.00
2022-12-05T23:18:48.447Z,49.80
2022-12-05T23:21:21.484Z,49.70
2022-12-05T23:23:50.273Z,49.60
2022-12-05T23:26:19.405Z,49.00
2022-12-05T23:28:46.210Z,49.10
2022-12-05T23:31:14.379Z,49.00
2022-12-05T23:33:41.625Z,50.80
2022-12-05T23:36:10.194Z,49.10
2022-12-05T23:38:38.965Z,49.10
2022-12-05T23:41:13.276Z,49.10
2022-12-05T23:43:41.317Z,49.10
2022-12-05T23:46:13.466Z,49.80
2022-12-05T23:48:40.579Z,49.80
2022-12-05T23:51:10.764Z,49.20
2022-12-05T23:53:39.509Z,49.90
2022-12-05T23:56:08.222Z,49.80
2022-12-05T23:58:35.650Z,49.10
